sensor_id;sensor_type;location;lat;lon;timestamp;pressure;altitude;pressure_sealevel;temperature;humidity
9525;BME280;15940;48.734;9.112;2023-03-23T00:00:55;96021.16;;;12.14;55.46
9525;BME280;15940;48.734;9.112;2023-03-23T00:03:22;96026.09;;;12.15;55.15
9525;BME280;15940;48.734;9.112;2023-03-23T00:05:51;96020.16;;;12.17;55.00
9525;BME280;15940;48.734;9.112;2023-03-23T00:10:52;96019.13;;;12.20;55.73
9525;BME280;15940;48.734;9.112;2023-03-23T00:13:22;96025.53;;;12.22;55.21
9525;BME280;15940;48.734;9.112;2023-03-23T00:15:50;96019.63;;;12.18;55.64
9525;BME280;15940;48.734;9.112;2023-03-23T00:18:18;96027.44;;;12.27;55.55
9525;BME280;15940;48.734;9.112;2023-03-23T00:20:49;96021.56;;;12.23;55.29
9525;BME280;15940;48.734;9.112;2023-03-23T00:23:16;96013.75;;;12.14;56.43
9525;BME280;15940;48.734;9.112;2023-03-23T00:25:50;96008.09;;;12.12;56.34
9525;BME280;15940;48.734;9.112;2023-03-23T00:30:35;96006.34;;;12.15;55.02
9525;BME280;15940;48.734;9.112;2023-03-23T00:33:02;96003.69;;;12.09;55.88
9525;BME280;15940;48.734;9.112;2023-03-23T00:35:29;95995.84;;;12.06;55.06
9525;BME280;15940;48.734;9.112;2023-03-23T00:40:13;96000.22;;;12.09;55.54
9525;BME280;15940;48.734;9.112;2023-03-23T00:45:07;95993.13;;;12.06;55.30
9525;BME280;15940;48.734;9.112;2023-03-23T00:47:37;95990.66;;;12.02;55.71
9525;BME280;15940;48.734;9.112;2023-03-23T00:50:07;95985.09;;;11.94;54.93
9525;BME280;15940;48.734;9.112;2023-03-23T00:52:35;95978.25;;;11.88;55.44
9525;BME280;15940;48.734;9.112;2023-03-23T00:57:35;95974.63;;;11.74;55.50
9525;BME280;15940;48.734;9.112;2023-03-23T01:00:02;95976.63;;;11.73;55.74
9525;BME280;15940;48.734;9.112;2023-03-23T01:02:34;95981.88;;;11.66;56.50
9525;BME280;15940;48.734;9.112;2023-03-23T01:05:01;95980.16;;;11.63;55.79
9525;BME280;15940;48.734;9.112;2023-03-23T01:07:29;95974.00;;;11.62;56.01
9525;BME280;15940;48.734;9.112;2023-03-23T01:09:56;95977.75;;;11.59;56.28
9525;BME280;15940;48.734;9.112;2023-03-23T01:12:26;95978.75;;;11.56;56.33
9525;BME280;15940;48.734;9.112;2023-03-23T01:14:54;95972.88;;;11.52;56.95
9525;BME280;15940;48.734;9.112;2023-03-23T01:17:21;95978.06;;;11.50;56.57
9525;BME280;15940;48.734;9.112;2023-03-23T01:19:48;95974.41;;;11.48;56.66
9525;BME280;15940;48.734;9.112;2023-03-23T01:22:15;95973.41;;;11.45;56.66
9525;BME280;15940;48.734;9.112;2023-03-23T01:24:41;95963.59;;;11.42;56.70
9525;BME280;15940;48.734;9.112;2023-03-23T01:27:08;95960.66;;;11.40;57.17
9525;BME280;15940;48.734;9.112;2023-03-23T01:29:35;95950.31;;;11.38;56.75
9525;BME280;15940;48.734;9.112;2023-03-23T01:32:04;95949.34;;;11.36;56.41
9525;BME280;15940;48.734;9.112;2023-03-23T01:34:31;95939.22;;;11.36;56.60
9525;BME280;15940;48.734;9.112;2023-03-23T01:39:25;95933.56;;;11.34;56.28
9525;BME280;15940;48.734;9.112;2023-03-23T01:41:52;95928.88;;;11.35;56.02
9525;BME280;15940;48.734;9.112;2023-03-23T01:48:00;95923.25;;;11.33;56.57
9525;BME280;15940;48.734;9.112;2023-03-23T01:50:31;95922.72;;;11.34;56.73
9525;BME280;15940;48.734;9.112;2023-03-23T01:53:01;95922.50;;;11.32;56.27
9525;BME280;15940;48.734;9.112;2023-03-23T01:55:34;95922.00;;;11.34;56.37
9525;BME280;15940;48.734;9.112;2023-03-23T01:58:04;95919.25;;;11.39;55.90
9525;BME280;15940;48.734;9.112;2023-03-23T02:00:31;95920.44;;;11.44;56.33
9525;BME280;15940;48.734;9.112;2023-03-23T02:03:00;95923.13;;;11.44;56.15
9525;BME280;15940;48.734;9.112;2023-03-23T02:05:31;95925.84;;;11.44;56.05
9525;BME280;15940;48.734;9.112;2023-03-23T02:08:02;95923.13;;;11.44;56.21
9525;BME280;15940;48.734;9.112;2023-03-23T02:10:33;95923.66;;;11.42;56.06
9525;BME280;15940;48.734;9.112;2023-03-23T02:13:03;95921.91;;;11.45;56.60
9525;BME280;15940;48.734;9.112;2023-03-23T02:15:40;95931.28;;;11.44;56.44
9525;BME280;15940;48.734;9.112;2023-03-23T02:26:19;95924.84;;;11.47;57.05
9525;BME280;15940;48.734;9.112;2023-03-23T02:29:08;95923.34;;;11.46;56.87
9525;BME280;15940;48.734;9.112;2023-03-23T02:34:05;95913.28;;;11.47;57.49
9525;BME280;15940;48.734;9.112;2023-03-23T02:36:39;95910.03;;;11.48;57.69
9525;BME280;15940;48.734;9.112;2023-03-23T02:39:11;95894.00;;;11.50;57.72
9525;BME280;15940;48.734;9.112;2023-03-23T02:44:02;95873.25;;;11.53;57.78
9525;BME280;15940;48.734;9.112;2023-03-23T02:46:31;95880.88;;;11.54;58.11
9525;BME280;15940;48.734;9.112;2023-03-23T02:48:59;95878.69;;;11.53;57.74
9525;BME280;15940;48.734;9.112;2023-03-23T02:51:27;95874.00;;;11.53;57.67
9525;BME280;15940;48.734;9.112;2023-03-23T02:53:56;95883.88;;;11.51;58.05
9525;BME280;15940;48.734;9.112;2023-03-23T02:56:26;95878.69;;;11.53;57.83
9525;BME280;15940;48.734;9.112;2023-03-23T02:58:53;95873.34;;;11.47;58.16
9525;BME280;15940;48.734;9.112;2023-03-23T03:01:51;95882.94;;;11.48;57.89
9525;BME280;15940;48.734;9.112;2023-03-23T03:09:55;95863.94;;;11.48;57.66
9525;BME280;15940;48.734;9.112;2023-03-23T03:12:34;95872.53;;;11.52;57.86
9525;BME280;15940;48.734;9.112;2023-03-23T03:15:21;95867.56;;;11.56;57.53
9525;BME280;15940;48.734;9.112;2023-03-23T03:17:59;95860.59;;;11.61;57.48
9525;BME280;15940;48.734;9.112;2023-03-23T03:20:30;95863.75;;;11.65;57.43
9525;BME280;15940;48.734;9.112;2023-03-23T03:23:00;95872.88;;;11.67;57.47
9525;BME280;15940;48.734;9.112;2023-03-23T03:25:28;95876.81;;;11.66;57.03
9525;BME280;15940;48.734;9.112;2023-03-23T03:27:56;95870.88;;;11.68;57.51
9525;BME280;15940;48.734;9.112;2023-03-23T03:30:28;95869.41;;;11.67;57.66
9525;BME280;15940;48.734;9.112;2023-03-23T03:32:57;95859.06;;;11.65;57.56
9525;BME280;15940;48.734;9.112;2023-03-23T03:37:56;95861.94;;;11.73;56.75
9525;BME280;15940;48.734;9.112;2023-03-23T03:40:26;95861.66;;;11.77;56.84
9525;BME280;15940;48.734;9.112;2023-03-23T03:42:53;95863.88;;;11.78;56.98
9525;BME280;15940;48.734;9.112;2023-03-23T03:45:20;95866.13;;;11.74;57.58
9525;BME280;15940;48.734;9.112;2023-03-23T03:47:47;95859.97;;;11.73;57.34
9525;BME280;15940;48.734;9.112;2023-03-23T03:50:14;95860.47;;;11.72;57.47
9525;BME280;15940;48.734;9.112;2023-03-23T03:52:42;95850.34;;;11.72;57.43
9525;BME280;15940;48.734;9.112;2023-03-23T03:57:32;95854.78;;;11.76;57.37
9525;BME280;15940;48.734;9.112;2023-03-23T03:59:59;95844.66;;;11.76;57.85
9525;BME280;15940;48.734;9.112;2023-03-23T04:02:26;95845.16;;;11.74;57.52
9525;BME280;15940;48.734;9.112;2023-03-23T04:04:53;95843.94;;;11.76;57.75
9525;BME280;15940;48.734;9.112;2023-03-23T04:07:20;95851.81;;;11.73;57.86
9525;BME280;15940;48.734;9.112;2023-03-23T04:09:51;95841.47;;;11.72;57.92
9525;BME280;15940;48.734;9.112;2023-03-23T04:12:18;95851.81;;;11.73;58.25
9525;BME280;15940;48.734;9.112;2023-03-23T04:14:49;95852.34;;;11.72;58.24
9525;BME280;15940;48.734;9.112;2023-03-23T04:17:16;95853.81;;;11.73;58.25
9525;BME280;15940;48.734;9.112;2023-03-23T04:19:43;95854.03;;;11.75;58.06
9525;BME280;15940;48.734;9.112;2023-03-23T04:22:10;95860.41;;;11.78;58.39
9525;BME280;15940;48.734;9.112;2023-03-23T04:24:37;95861.88;;;11.79;58.65
9525;BME280;15940;48.734;9.112;2023-03-23T04:27:04;95858.91;;;11.82;57.84
9525;BME280;15940;48.734;9.112;2023-03-23T04:29:31;95864.19;;;11.93;57.51
9525;BME280;15940;48.734;9.112;2023-03-23T04:32:00;95851.31;;;11.99;57.69
9525;BME280;15940;48.734;9.112;2023-03-23T04:34:27;95860.69;;;11.98;58.22
9525;BME280;15940;48.734;9.112;2023-03-23T04:36:59;95860.47;;;11.96;58.47
9525;BME280;15940;48.734;9.112;2023-03-23T04:39:26;95863.41;;;11.98;58.24
9525;BME280;15940;48.734;9.112;2023-03-23T04:41:54;95853.06;;;11.97;58.08
9525;BME280;15940;48.734;9.112;2023-03-23T04:44:21;95845.97;;;11.94;58.08
9525;BME280;15940;48.734;9.112;2023-03-23T04:46:48;95850.56;;;11.99;57.88
9525;BME280;15940;48.734;9.112;2023-03-23T04:49:17;95848.53;;;12.05;57.39
9525;BME280;15940;48.734;9.112;2023-03-23T04:51:47;95845.19;;;12.12;57.05
9525;BME280;15940;48.734;9.112;2023-03-23T04:54:14;95858.94;;;12.20;56.80
9525;BME280;15940;48.734;9.112;2023-03-23T04:56:41;95854.16;;;12.26;56.77
9525;BME280;15940;48.734;9.112;2023-03-23T04:59:08;95854.31;;;12.34;56.84
9525;BME280;15940;48.734;9.112;2023-03-23T05:04:04;95854.84;;;12.32;56.94
9525;BME280;15940;48.734;9.112;2023-03-23T05:06:31;95853.81;;;12.35;56.67
9525;BME280;15940;48.734;9.112;2023-03-23T05:08:58;95851.00;;;12.41;56.00
9525;BME280;15940;48.734;9.112;2023-03-23T05:11:25;95859.06;;;12.46;56.36
9525;BME280;15940;48.734;9.112;2023-03-23T05:13:52;95847.69;;;12.48;55.68
9525;BME280;15940;48.734;9.112;2023-03-23T05:16:19;95842.25;;;12.48;55.76
9525;BME280;15940;48.734;9.112;2023-03-23T05:18:46;95841.53;;;12.47;55.69
9525;BME280;15940;48.734;9.112;2023-03-23T05:21:14;95838.53;;;12.51;56.15
9525;BME280;15940;48.734;9.112;2023-03-23T05:23:41;95846.94;;;12.47;55.54
9525;BME280;15940;48.734;9.112;2023-03-23T05:26:08;95835.66;;;12.43;56.49
9525;BME280;15940;48.734;9.112;2023-03-23T05:28:35;95838.06;;;12.47;56.31
9525;BME280;15940;48.734;9.112;2023-03-23T05:31:03;95836.03;;;12.53;55.53
9525;BME280;15940;48.734;9.112;2023-03-23T05:33:30;95840.78;;;12.47;56.19
9525;BME280;15940;48.734;9.112;2023-03-23T05:35:57;95841.53;;;12.47;56.06
9525;BME280;15940;48.734;9.112;2023-03-23T05:38:25;95844.97;;;12.48;55.90
9525;BME280;15940;48.734;9.112;2023-03-23T05:40:52;95833.31;;;12.53;55.35
9525;BME280;15940;48.734;9.112;2023-03-23T05:43:19;95844.53;;;12.63;55.13
9525;BME280;15940;48.734;9.112;2023-03-23T05:45:47;95836.78;;;12.67;55.09
9525;BME280;15940;48.734;9.112;2023-03-23T05:48:13;95843.47;;;12.66;55.63
9525;BME280;15940;48.734;9.112;2023-03-23T05:50:40;95835.13;;;12.64;55.75
9525;BME280;15940;48.734;9.112;2023-03-23T05:53:07;95847.03;;;12.61;56.17
9525;BME280;15940;48.734;9.112;2023-03-23T05:55:36;95844.72;;;12.65;55.71
9525;BME280;15940;48.734;9.112;2023-03-23T05:58:03;95840.97;;;12.68;55.62
9525;BME280;15940;48.734;9.112;2023-03-23T06:00:30;95853.53;;;12.71;54.92
9525;BME280;15940;48.734;9.112;2023-03-23T06:02:58;95857.94;;;12.74;55.60
9525;BME280;15940;48.734;9.112;2023-03-23T06:05:26;95859.09;;;12.78;54.94
9525;BME280;15940;48.734;9.112;2023-03-23T06:07:55;95855.97;;;12.87;54.55
9525;BME280;15940;48.734;9.112;2023-03-23T06:10:22;95867.56;;;12.88;54.51
9525;BME280;15940;48.734;9.112;2023-03-23T06:12:51;95872.00;;;12.91;55.50
9525;BME280;15940;48.734;9.112;2023-03-23T06:15:18;95872.81;;;12.86;55.11
9525;BME280;15940;48.734;9.112;2023-03-23T06:17:45;95883.88;;;12.88;55.06
9525;BME280;15940;48.734;9.112;2023-03-23T06:20:13;95884.63;;;12.88;55.68
9525;BME280;15940;48.734;9.112;2023-03-23T06:22:40;95887.56;;;12.91;55.85
9525;BME280;15940;48.734;9.112;2023-03-23T06:25:09;95887.50;;;12.77;57.05
9525;BME280;15940;48.734;9.112;2023-03-23T06:27:37;95887.28;;;12.75;55.81
9525;BME280;15940;48.734;9.112;2023-03-23T06:30:07;95894.50;;;12.73;55.78
9525;BME280;15940;48.734;9.112;2023-03-23T06:32:34;95904.34;;;12.76;56.16
9525;BME280;15940;48.734;9.112;2023-03-23T06:35:01;95901.94;;;12.72;56.65
9525;BME280;15940;48.734;9.112;2023-03-23T06:37:29;95904.13;;;12.74;56.52
9525;BME280;15940;48.734;9.112;2023-03-23T06:39:56;95897.22;;;12.73;56.56
9525;BME280;15940;48.734;9.112;2023-03-23T06:42:24;95903.81;;;12.77;55.97
9525;BME280;15940;48.734;9.112;2023-03-23T06:44:51;95899.84;;;12.78;56.05
9525;BME280;15940;48.734;9.112;2023-03-23T06:47:20;95905.41;;;12.86;56.26
9525;BME280;15940;48.734;9.112;2023-03-23T06:49:48;95897.75;;;13.03;55.74
9525;BME280;15940;48.734;9.112;2023-03-23T06:52:16;95904.19;;;13.19;55.11
9525;BME280;15940;48.734;9.112;2023-03-23T06:54:43;95900.97;;;13.34;54.62
9525;BME280;15940;48.734;9.112;2023-03-23T06:57:10;95902.03;;;13.44;55.70
9525;BME280;15940;48.734;9.112;2023-03-23T06:59:37;95918.69;;;13.54;55.28
9525;BME280;15940;48.734;9.112;2023-03-23T07:02:04;95914.31;;;13.64;54.39
9525;BME280;15940;48.734;9.112;2023-03-23T07:04:33;95917.03;;;13.64;54.50
9525;BME280;15940;48.734;9.112;2023-03-23T07:07:00;95920.59;;;13.59;54.52
9525;BME280;15940;48.734;9.112;2023-03-23T07:09:27;95917.53;;;13.49;54.88
9525;BME280;15940;48.734;9.112;2023-03-23T07:11:54;95919.75;;;13.51;54.54
9525;BME280;15940;48.734;9.112;2023-03-23T07:14:21;95924.25;;;13.48;54.49
9525;BME280;15940;48.734;9.112;2023-03-23T07:16:48;95922.97;;;13.49;55.53
9525;BME280;15940;48.734;9.112;2023-03-23T07:19:16;95923.81;;;13.44;54.69
9525;BME280;15940;48.734;9.112;2023-03-23T07:21:44;95923.06;;;13.43;54.88
9525;BME280;15940;48.734;9.112;2023-03-23T07:24:12;95936.78;;;13.38;55.46
9525;BME280;15940;48.734;9.112;2023-03-23T07:26:39;95939.78;;;13.34;55.22
9525;BME280;15940;48.734;9.112;2023-03-23T07:29:07;95949.94;;;13.34;55.63
9525;BME280;15940;48.734;9.112;2023-03-23T07:31:35;95947.75;;;13.32;55.13
9525;BME280;15940;48.734;9.112;2023-03-23T07:34:02;95953.19;;;13.32;55.50
9525;BME280;15940;48.734;9.112;2023-03-23T07:36:29;95960.53;;;13.37;55.84
9525;BME280;15940;48.734;9.112;2023-03-23T07:38:58;95966.47;;;13.36;55.16
9525;BME280;15940;48.734;9.112;2023-03-23T07:43:47;95962.41;;;13.42;56.40
9525;BME280;15940;48.734;9.112;2023-03-23T07:46:14;95964.72;;;13.52;55.56
9525;BME280;15940;48.734;9.112;2023-03-23T07:48:41;95959.09;;;13.63;55.74
9525;BME280;15940;48.734;9.112;2023-03-23T07:51:09;95955.88;;;13.78;56.31
9525;BME280;15940;48.734;9.112;2023-03-23T07:53:36;95965.34;;;14.03;55.39
9525;BME280;15940;48.734;9.112;2023-03-23T07:56:03;95963.97;;;14.23;55.15
9525;BME280;15940;48.734;9.112;2023-03-23T07:58:30;95963.13;;;14.41;54.63
9525;BME280;15940;48.734;9.112;2023-03-23T08:00:58;95959.97;;;14.50;53.86
9525;BME280;15940;48.734;9.112;2023-03-23T08:03:26;95970.75;;;14.56;53.96
9525;BME280;15940;48.734;9.112;2023-03-23T08:05:53;95963.22;;;14.49;55.27
9525;BME280;15940;48.734;9.112;2023-03-23T08:08:19;95975.28;;;14.53;54.02
9525;BME280;15940;48.734;9.112;2023-03-23T08:10:47;95975.28;;;14.40;54.62
9525;BME280;15940;48.734;9.112;2023-03-23T08:13:14;95981.56;;;14.35;54.92
9525;BME280;15940;48.734;9.112;2023-03-23T08:15:41;95987.53;;;14.34;55.42
9525;BME280;15940;48.734;9.112;2023-03-23T08:18:10;95980.19;;;14.28;56.71
9525;BME280;15940;48.734;9.112;2023-03-23T08:20:37;95984.19;;;14.41;56.05
9525;BME280;15940;48.734;9.112;2023-03-23T08:23:06;95975.66;;;14.57;56.73
9525;BME280;15940;48.734;9.112;2023-03-23T08:25:33;95975.94;;;14.80;55.61
9525;BME280;15940;48.734;9.112;2023-03-23T08:28:00;95983.41;;;14.80;56.22
9525;BME280;15940;48.734;9.112;2023-03-23T08:30:29;95987.34;;;14.92;55.56
9525;BME280;15940;48.734;9.112;2023-03-23T08:32:59;95997.13;;;14.74;55.32
9525;BME280;15940;48.734;9.112;2023-03-23T08:35:28;95989.00;;;14.61;56.12
9525;BME280;15940;48.734;9.112;2023-03-23T08:37:55;95994.22;;;14.59;56.30
9525;BME280;15940;48.734;9.112;2023-03-23T08:40:24;95992.25;;;14.60;56.27
9525;BME280;15940;48.734;9.112;2023-03-23T08:42:52;95993.50;;;14.58;57.26
9525;BME280;15940;48.734;9.112;2023-03-23T08:45:22;96001.13;;;14.73;57.40
9525;BME280;15940;48.734;9.112;2023-03-23T08:47:50;96002.25;;;14.78;57.43
9525;BME280;15940;48.734;9.112;2023-03-23T08:50:20;95994.50;;;14.82;57.15
9525;BME280;15940;48.734;9.112;2023-03-23T08:55:13;96012.13;;;14.68;57.62
9525;BME280;15940;48.734;9.112;2023-03-23T08:57:41;96012.75;;;14.74;58.30
9525;BME280;15940;48.734;9.112;2023-03-23T09:00:14;96010.91;;;14.69;56.67
9525;BME280;15940;48.734;9.112;2023-03-23T09:02:44;96011.38;;;14.80;57.75
9525;BME280;15940;48.734;9.112;2023-03-23T09:05:13;96021.00;;;14.95;57.28
9525;BME280;15940;48.734;9.112;2023-03-23T09:07:44;96013.44;;;15.01;56.78
9525;BME280;15940;48.734;9.112;2023-03-23T09:10:13;96018.34;;;15.02;56.44
9525;BME280;15940;48.734;9.112;2023-03-23T09:12:41;96020.72;;;15.19;57.23
9525;BME280;15940;48.734;9.112;2023-03-23T09:17:37;96028.66;;;15.30;56.65
9525;BME280;15940;48.734;9.112;2023-03-23T09:20:07;96029.91;;;15.29;57.02
9525;BME280;15940;48.734;9.112;2023-03-23T09:22:37;96037.69;;;15.25;56.67
9525;BME280;15940;48.734;9.112;2023-03-23T09:25:06;96035.22;;;15.35;56.62
9525;BME280;15940;48.734;9.112;2023-03-23T09:27:34;96032.47;;;15.48;56.62
9525;BME280;15940;48.734;9.112;2023-03-23T09:30:03;96047.84;;;15.38;56.10
9525;BME280;15940;48.734;9.112;2023-03-23T09:32:32;96032.19;;;15.38;56.71
9525;BME280;15940;48.734;9.112;2023-03-23T09:35:03;96042.41;;;15.25;56.38
9525;BME280;15940;48.734;9.112;2023-03-23T09:37:30;96048.31;;;15.15;56.73
9525;BME280;15940;48.734;9.112;2023-03-23T09:39:58;96045.09;;;15.04;57.07
9525;BME280;15940;48.734;9.112;2023-03-23T09:42:39;96043.78;;;14.84;56.42
9525;BME280;15940;48.734;9.112;2023-03-23T09:45:19;96055.84;;;14.75;56.82
9525;BME280;15940;48.734;9.112;2023-03-23T09:48:05;96063.81;;;14.73;56.89
9525;BME280;15940;48.734;9.112;2023-03-23T09:50:38;96064.56;;;14.74;57.82
9525;BME280;15940;48.734;9.112;2023-03-23T09:55:27;96049.72;;;14.96;56.73
9525;BME280;15940;48.734;9.112;2023-03-23T09:57:58;96046.97;;;15.09;56.45
9525;BME280;15940;48.734;9.112;2023-03-23T10:00:31;96048.84;;;15.14;56.90
9525;BME280;15940;48.734;9.112;2023-03-23T10:03:05;96056.13;;;14.98;56.87
9525;BME280;15940;48.734;9.112;2023-03-23T10:05:37;96058.91;;;15.19;57.18
9525;BME280;15940;48.734;9.112;2023-03-23T10:08:11;96056.69;;;15.52;56.79
9525;BME280;15940;48.734;9.112;2023-03-23T10:10:58;96064.06;;;16.27;56.28
9525;BME280;15940;48.734;9.112;2023-03-23T10:13:44;96054.81;;;16.59;55.05
9525;BME280;15940;48.734;9.112;2023-03-23T10:16:19;96068.47;;;16.95;53.19
9525;BME280;15940;48.734;9.112;2023-03-23T10:18:53;96060.09;;;16.93;52.66
9525;BME280;15940;48.734;9.112;2023-03-23T10:21:24;96061.75;;;16.67;54.06
9525;BME280;15940;48.734;9.112;2023-03-23T10:23:56;96064.13;;;16.35;54.17
9525;BME280;15940;48.734;9.112;2023-03-23T10:26:43;96055.13;;;15.98;54.75
9525;BME280;15940;48.734;9.112;2023-03-23T10:29:17;96068.50;;;16.09;55.44
9525;BME280;15940;48.734;9.112;2023-03-23T10:31:50;96072.19;;;16.12;55.33
9525;BME280;15940;48.734;9.112;2023-03-23T10:34:23;96070.44;;;16.22;55.40
9525;BME280;15940;48.734;9.112;2023-03-23T10:37:00;96076.81;;;16.24;55.67
9525;BME280;15940;48.734;9.112;2023-03-23T10:39:32;96072.09;;;16.25;54.88
9525;BME280;15940;48.734;9.112;2023-03-23T10:42:02;96077.19;;;16.57;54.53
9525;BME280;15940;48.734;9.112;2023-03-23T10:44:33;96071.78;;;16.36;53.77
9525;BME280;15940;48.734;9.112;2023-03-23T10:47:02;96080.41;;;16.40;55.77
9525;BME280;15940;48.734;9.112;2023-03-23T10:49:36;96077.19;;;16.57;54.49
9525;BME280;15940;48.734;9.112;2023-03-23T10:52:23;96072.50;;;16.94;53.84
9525;BME280;15940;48.734;9.112;2023-03-23T10:54:56;96074.91;;;17.05;54.33
9525;BME280;15940;48.734;9.112;2023-03-23T10:57:28;96079.56;;;17.33;52.19
9525;BME280;15940;48.734;9.112;2023-03-23T11:00:02;96078.34;;;17.57;52.41
9525;BME280;15940;48.734;9.112;2023-03-23T11:02:37;96077.81;;;17.66;51.63
9525;BME280;15940;48.734;9.112;2023-03-23T11:05:16;96079.25;;;17.52;52.26
9525;BME280;15940;48.734;9.112;2023-03-23T11:07:53;96072.66;;;17.39;51.97
9525;BME280;15940;48.734;9.112;2023-03-23T11:10:23;96070.75;;;17.11;53.10
9525;BME280;15940;48.734;9.112;2023-03-23T11:12:56;96074.19;;;17.04;53.27
9525;BME280;15940;48.734;9.112;2023-03-23T11:15:29;96069.44;;;16.97;52.73
9525;BME280;15940;48.734;9.112;2023-03-23T11:17:59;96070.50;;;16.66;54.26
9525;BME280;15940;48.734;9.112;2023-03-23T11:20:29;96076.03;;;16.45;54.46
9525;BME280;15940;48.734;9.112;2023-03-23T11:23:07;96068.88;;;16.34;55.09
9525;BME280;15940;48.734;9.112;2023-03-23T11:25:34;96070.69;;;16.11;56.42
9525;BME280;15940;48.734;9.112;2023-03-23T11:28:15;96072.56;;;16.16;57.66
9525;BME280;15940;48.734;9.112;2023-03-23T11:30:42;96064.84;;;16.07;57.41
9525;BME280;15940;48.734;9.112;2023-03-23T11:33:10;96062.16;;;16.14;57.27
9525;BME280;15940;48.734;9.112;2023-03-23T11:35:44;96050.50;;;16.42;56.20
9525;BME280;15940;48.734;9.112;2023-03-23T11:38:18;96038.41;;;16.66;55.22
9525;BME280;15940;48.734;9.112;2023-03-23T11:40:50;96050.88;;;17.19;55.09
9525;BME280;15940;48.734;9.112;2023-03-23T11:43:22;96035.44;;;17.44;53.08
9525;BME280;15940;48.734;9.112;2023-03-23T11:46:00;96041.66;;;17.67;52.80
9525;BME280;15940;48.734;9.112;2023-03-23T11:48:35;96040.38;;;17.46;51.96
9525;BME280;15940;48.734;9.112;2023-03-23T11:51:11;96042.69;;;17.26;53.59
9525;BME280;15940;48.734;9.112;2023-03-23T11:53:48;96056.19;;;17.24;51.97
9525;BME280;15940;48.734;9.112;2023-03-23T11:56:24;96052.31;;;17.12;51.32
9525;BME280;15940;48.734;9.112;2023-03-23T11:58:55;96058.31;;;17.03;50.68
9525;BME280;15940;48.734;9.112;2023-03-23T12:01:40;96048.28;;;17.05;51.79
9525;BME280;15940;48.734;9.112;2023-03-23T12:04:40;96055.56;;;17.03;51.94
9525;BME280;15940;48.734;9.112;2023-03-23T12:07:34;96044.50;;;17.24;51.81
9525;BME280;15940;48.734;9.112;2023-03-23T12:10:22;96055.63;;;17.18;52.51
9525;BME280;15940;48.734;9.112;2023-03-23T12:13:05;96051.44;;;17.17;52.24
9525;BME280;15940;48.734;9.112;2023-03-23T12:15:50;96042.66;;;17.11;51.72
9525;BME280;15940;48.734;9.112;2023-03-23T12:18:36;96043.78;;;17.23;51.38
9525;BME280;15940;48.734;9.112;2023-03-23T12:21:12;96033.75;;;17.26;50.98
9525;BME280;15940;48.734;9.112;2023-03-23T12:23:50;96040.66;;;17.19;51.55
9525;BME280;15940;48.734;9.112;2023-03-23T12:26:23;96039.41;;;17.28;51.71
9525;BME280;15940;48.734;9.112;2023-03-23T12:29:14;96042.84;;;17.21;52.65
9525;BME280;15940;48.734;9.112;2023-03-23T12:31:56;96034.63;;;17.13;52.58
9525;BME280;15940;48.734;9.112;2023-03-23T12:34:35;96037.19;;;17.19;51.73
9525;BME280;15940;48.734;9.112;2023-03-23T12:37:25;96035.25;;;17.34;51.89
9525;BME280;15940;48.734;9.112;2023-03-23T12:42:58;96021.69;;;17.21;51.64
9525;BME280;15940;48.734;9.112;2023-03-23T12:45:48;96022.84;;;17.56;50.78
9525;BME280;15940;48.734;9.112;2023-03-23T12:48:23;96018.47;;;17.61;50.46
9525;BME280;15940;48.734;9.112;2023-03-23T12:51:11;96017.97;;;17.78;51.58
9525;BME280;15940;48.734;9.112;2023-03-23T12:53:48;96017.59;;;17.96;49.76
9525;BME280;15940;48.734;9.112;2023-03-23T12:56:26;96017.22;;;17.69;50.99
9525;BME280;15940;48.734;9.112;2023-03-23T12:59:11;96029.84;;;17.88;49.93
9525;BME280;15940;48.734;9.112;2023-03-23T13:01:43;96018.69;;;17.70;51.00
9525;BME280;15940;48.734;9.112;2023-03-23T13:04:18;96017.59;;;17.74;50.68
9525;BME280;15940;48.734;9.112;2023-03-23T13:06:48;96016.69;;;17.94;49.75
9525;BME280;15940;48.734;9.112;2023-03-23T13:09:20;96007.00;;;17.78;50.96
9525;BME280;15940;48.734;9.112;2023-03-23T13:11:52;96005.56;;;17.84;50.48
9525;BME280;15940;48.734;9.112;2023-03-23T13:14:32;96004.78;;;17.68;49.93
9525;BME280;15940;48.734;9.112;2023-03-23T13:17:13;95996.06;;;17.85;52.13
9525;BME280;15940;48.734;9.112;2023-03-23T13:20:32;95991.25;;;18.09;49.87
9525;BME280;15940;48.734;9.112;2023-03-23T13:23:09;95989.97;;;18.10;49.89
9525;BME280;15940;48.734;9.112;2023-03-23T13:25:54;95986.72;;;17.81;49.83
9525;BME280;15940;48.734;9.112;2023-03-23T13:28:25;95993.69;;;17.82;49.55
9525;BME280;15940;48.734;9.112;2023-03-23T13:31:00;95974.13;;;17.62;48.85
9525;BME280;15940;48.734;9.112;2023-03-23T13:33:33;95965.19;;;17.54;49.91
9525;BME280;15940;48.734;9.112;2023-03-23T13:36:11;95974.28;;;17.57;49.84
9525;BME280;15940;48.734;9.112;2023-03-23T13:38:45;95981.06;;;17.56;50.24
9525;BME280;15940;48.734;9.112;2023-03-23T13:41:17;95969.53;;;17.34;50.53
9525;BME280;15940;48.734;9.112;2023-03-23T13:43:45;95970.63;;;17.39;50.07
9525;BME280;15940;48.734;9.112;2023-03-23T13:46:27;95970.81;;;17.41;51.14
9525;BME280;15940;48.734;9.112;2023-03-23T13:49:16;95963.16;;;17.39;50.66
9525;BME280;15940;48.734;9.112;2023-03-23T13:52:00;95956.41;;;17.25;50.71
9525;BME280;15940;48.734;9.112;2023-03-23T13:54:39;95970.78;;;17.10;51.37
9525;BME280;15940;48.734;9.112;2023-03-23T13:57:24;95971.72;;;17.28;50.27
9525;BME280;15940;48.734;9.112;2023-03-23T13:59:57;95954.69;;;16.99;51.11
9525;BME280;15940;48.734;9.112;2023-03-23T14:02:33;95959.44;;;16.99;51.89
9525;BME280;15940;48.734;9.112;2023-03-23T14:05:31;95960.91;;;17.00;51.58
9525;BME280;15940;48.734;9.112;2023-03-23T14:08:03;95942.28;;;16.91;51.58
9525;BME280;15940;48.734;9.112;2023-03-23T14:10:42;95945.16;;;16.85;49.52
9525;BME280;15940;48.734;9.112;2023-03-23T14:13:17;95933.13;;;16.80;50.49
9525;BME280;15940;48.734;9.112;2023-03-23T14:15:59;95936.44;;;16.94;51.02
9525;BME280;15940;48.734;9.112;2023-03-23T14:18:32;95941.16;;;16.78;49.20
9525;BME280;15940;48.734;9.112;2023-03-23T14:21:01;95945.16;;;16.77;50.23
9525;BME280;15940;48.734;9.112;2023-03-23T14:23:32;95941.16;;;16.78;49.81
9525;BME280;15940;48.734;9.112;2023-03-23T14:26:02;95931.66;;;16.72;49.45
9525;BME280;15940;48.734;9.112;2023-03-23T14:28:37;95936.38;;;16.71;50.76